sensor_id;sensor_type;location;lat;lon;timestamp;pressure;altitude;pressure_sealevel;temperature;humidity
6200;BME280;3133;43.214;27.906;2023-04-28T00:00:07;100778.88;;;9.38;100.00
6200;BME280;3133;43.214;27.906;2023-04-28T00:02:34;100855.56;;;9.75;100.00
6200;BME280;3133;43.214;27.906;2023-04-28T00:05:01;100826.00;;;9.73;100.00
6200;BME280;3133;43.214;27.906;2023-04-28T00:07:28;100811.97;;;9.54;100.00
6200;BME280;3133;43.214;27.906;2023-04-28T00:09:54;100859.84;;;9.70;100.00
6200;BME280;3133;43.214;27.906;2023-04-28T00:12:23;100848.47;;;9.57;100.00
6200;BME280;3133;43.214;27.906;2023-04-28T00:14:50;100823.97;;;9.37;100.00
6200;BME280;3133;43.214;27.906;2023-04-28T00:17:17;100869.22;;;9.51;100.00
6200;BME280;3133;43.214;27.906;2023-04-28T00:19:44;100856.22;;;9.56;100.00
6200;BME280;3133;43.214;27.906;2023-04-28T00:22:11;100849.34;;;9.59;100.00
6200;BME280;3133;43.214;27.906;2023-04-28T00:24:38;100853.47;;;9.36;100.00
6200;BME280;3133;43.214;27.906;2023-04-28T00:27:06;100842.28;;;9.48;100.00
6200;BME280;3133;43.214;27.906;2023-04-28T00:29:35;100812.66;;;9.35;100.00
6200;BME280;3133;43.214;27.906;2023-04-28T00:32:02;100863.06;;;9.43;100.00
6200;BME280;3133;43.214;27.906;2023-04-28T00:34:31;100841.19;;;9.23;100.00
6200;BME280;3133;43.214;27.906;2023-04-28T00:36:58;100795.81;;;8.97;100.00
6200;BME280;3133;43.214;27.906;2023-04-28T00:39:25;100803.44;;;8.83;100.00
6200;BME280;3133;43.214;27.906;2023-04-28T00:41:52;100862.72;;;9.10;100.00
6200;BME280;3133;43.214;27.906;2023-04-28T00:44:19;100862.81;;;9.19;100.00
6200;BME280;3133;43.214;27.906;2023-04-28T00:46:52;100888.84;;;9.22;100.00
6200;BME280;3133;43.214;27.906;2023-04-28T00:49:19;100812.97;;;8.83;100.00
6200;BME280;3133;43.214;27.906;2023-04-28T00:51:46;100874.94;;;9.20;100.00
6200;BME280;3133;43.214;27.906;2023-04-28T00:54:13;100866.38;;;9.28;100.00
6200;BME280;3133;43.214;27.906;2023-04-28T00:56:40;100849.75;;;9.16;100.00
6200;BME280;3133;43.214;27.906;2023-04-28T00:59:06;100866.19;;;9.12;100.00
6200;BME280;3133;43.214;27.906;2023-04-28T01:01:34;100870.78;;;9.34;100.00
6200;BME280;3133;43.214;27.906;2023-04-28T01:04:02;100877.63;;;9.26;100.00
6200;BME280;3133;43.214;27.906;2023-04-28T01:06:29;100875.81;;;9.19;100.00
6200;BME280;3133;43.214;27.906;2023-04-28T01:08:57;100869.69;;;9.14;100.00
6200;BME280;3133;43.214;27.906;2023-04-28T01:11:24;100847.00;;;9.01;100.00
6200;BME280;3133;43.214;27.906;2023-04-28T01:13:51;100851.53;;;9.21;100.00
6200;BME280;3133;43.214;27.906;2023-04-28T01:16:18;100876.66;;;9.18;100.00
6200;BME280;3133;43.214;27.906;2023-04-28T01:18:46;100880.81;;;9.01;100.00
6200;BME280;3133;43.214;27.906;2023-04-28T01:21:24;100882.75;;;9.20;100.00
6200;BME280;3133;43.214;27.906;2023-04-28T01:23:55;100860.03;;;9.04;100.00
6200;BME280;3133;43.214;27.906;2023-04-28T01:26:22;100878.00;;;8.86;100.00
6200;BME280;3133;43.214;27.906;2023-04-28T01:28:48;100874.44;;;8.78;100.00
6200;BME280;3133;43.214;27.906;2023-04-28T01:31:15;100816.13;;;8.56;100.00
6200;BME280;3133;43.214;27.906;2023-04-28T01:33:42;100876.31;;;8.88;100.00
6200;BME280;3133;43.214;27.906;2023-04-28T01:36:09;100868.28;;;8.71;100.00
6200;BME280;3133;43.214;27.906;2023-04-28T01:38:36;100866.72;;;8.82;100.00
6200;BME280;3133;43.214;27.906;2023-04-28T01:41:05;100871.09;;;8.88;100.00
6200;BME280;3133;43.214;27.906;2023-04-28T01:43:31;100828.16;;;8.52;100.00
6200;BME280;3133;43.214;27.906;2023-04-28T01:45:58;100877.06;;;8.79;100.00
6200;BME280;3133;43.214;27.906;2023-04-28T01:48:25;100870.06;;;8.75;100.00
6200;BME280;3133;43.214;27.906;2023-04-28T01:50:52;100843.06;;;8.64;100.00
6200;BME280;3133;43.214;27.906;2023-04-28T01:53:19;100876.22;;;8.80;100.00
6200;BME280;3133;43.214;27.906;2023-04-28T01:55:46;100873.63;;;8.83;100.00
6200;BME280;3133;43.214;27.906;2023-04-28T01:58:14;100849.28;;;8.77;100.00
6200;BME280;3133;43.214;27.906;2023-04-28T02:00:41;100799.56;;;8.48;100.00
6200;BME280;3133;43.214;27.906;2023-04-28T02:03:08;100869.50;;;8.99;100.00
6200;BME280;3133;43.214;27.906;2023-04-28T02:05:34;100873.56;;;8.76;100.00
6200;BME280;3133;43.214;27.906;2023-04-28T02:08:02;100875.28;;;8.74;100.00
6200;BME280;3133;43.214;27.906;2023-04-28T02:10:29;100873.22;;;8.52;100.00
6200;BME280;3133;43.214;27.906;2023-04-28T02:12:55;100843.59;;;8.39;100.00
6200;BME280;3133;43.214;27.906;2023-04-28T02:15:24;100875.06;;;8.59;100.00
6200;BME280;3133;43.214;27.906;2023-04-28T02:17:51;100849.88;;;8.55;100.00
6200;BME280;3133;43.214;27.906;2023-04-28T02:20:18;100867.22;;;8.56;100.00
6200;BME280;3133;43.214;27.906;2023-04-28T02:22:44;100862.06;;;8.60;100.00
6200;BME280;3133;43.214;27.906;2023-04-28T02:25:11;100870.56;;;8.48;100.00
6200;BME280;3133;43.214;27.906;2023-04-28T02:27:38;100807.78;;;8.20;100.00
6200;BME280;3133;43.214;27.906;2023-04-28T02:30:06;100844.31;;;8.29;100.00
6200;BME280;3133;43.214;27.906;2023-04-28T02:32:35;100868.84;;;8.47;100.00
6200;BME280;3133;43.214;27.906;2023-04-28T02:35:02;100878.06;;;8.27;100.00
6200;BME280;3133;43.214;27.906;2023-04-28T02:37:29;100888.72;;;8.45;100.00
6200;BME280;3133;43.214;27.906;2023-04-28T02:39:56;100896.22;;;8.26;100.00
6200;BME280;3133;43.214;27.906;2023-04-28T02:42:23;100897.97;;;8.27;100.00
6200;BME280;3133;43.214;27.906;2023-04-28T02:44:50;100807.84;;;7.66;100.00
6200;BME280;3133;43.214;27.906;2023-04-28T02:47:16;100824.50;;;7.80;100.00
6200;BME280;3133;43.214;27.906;2023-04-28T02:49:45;100902.19;;;8.22;100.00
6200;BME280;3133;43.214;27.906;2023-04-28T02:52:11;100876.81;;;8.04;100.00
6200;BME280;3133;43.214;27.906;2023-04-28T02:54:38;100882.91;;;8.08;100.00
6200;BME280;3133;43.214;27.906;2023-04-28T02:57:05;100878.44;;;7.98;100.00
6200;BME280;3133;43.214;27.906;2023-04-28T02:59:32;100883.13;;;8.20;100.00
6200;BME280;3133;43.214;27.906;2023-04-28T03:01:59;100852.47;;;7.99;100.00
6200;BME280;3133;43.214;27.906;2023-04-28T03:04:26;100899.66;;;7.74;100.00
6200;BME280;3133;43.214;27.906;2023-04-28T03:06:54;100924.19;;;7.90;100.00
6200;BME280;3133;43.214;27.906;2023-04-28T03:09:21;100925.09;;;7.95;100.00
6200;BME280;3133;43.214;27.906;2023-04-28T03:11:48;100918.91;;;7.87;100.00
6200;BME280;3133;43.214;27.906;2023-04-28T03:14:15;100930.53;;;7.59;100.00
6200;BME280;3133;43.214;27.906;2023-04-28T03:16:42;100936.88;;;7.73;100.00
6200;BME280;3133;43.214;27.906;2023-04-28T03:19:09;100904.03;;;7.75;100.00
6200;BME280;3133;43.214;27.906;2023-04-28T03:21:36;100921.50;;;7.87;100.00
6200;BME280;3133;43.214;27.906;2023-04-28T03:24:05;100943.00;;;7.78;100.00
6200;BME280;3133;43.214;27.906;2023-04-28T03:26:32;100909.66;;;7.53;100.00
6200;BME280;3133;43.214;27.906;2023-04-28T03:28:59;100949.78;;;7.71;100.00
6200;BME280;3133;43.214;27.906;2023-04-28T03:31:26;100881.13;;;7.08;100.00
6200;BME280;3133;43.214;27.906;2023-04-28T03:33:53;100940.91;;;7.59;100.00
6200;BME280;3133;43.214;27.906;2023-04-28T03:36:20;100966.38;;;7.80;100.00
6200;BME280;3133;43.214;27.906;2023-04-28T03:38:47;100960.22;;;7.73;100.00
6200;BME280;3133;43.214;27.906;2023-04-28T03:41:15;100940.38;;;7.75;100.00
6200;BME280;3133;43.214;27.906;2023-04-28T03:43:43;100972.41;;;7.77;100.00
6200;BME280;3133;43.214;27.906;2023-04-28T03:46:09;100903.75;;;7.60;100.00
6200;BME280;3133;43.214;27.906;2023-04-28T03:48:36;100920.50;;;7.32;100.00
6200;BME280;3133;43.214;27.906;2023-04-28T03:51:03;100930.78;;;7.72;100.00
6200;BME280;3133;43.214;27.906;2023-04-28T03:53:30;100979.19;;;8.18;100.00
6200;BME280;3133;43.214;27.906;2023-04-28T03:55:57;100990.19;;;8.04;100.00
6200;BME280;3133;43.214;27.906;2023-04-28T03:58:25;100943.91;;;7.80;100.00
6200;BME280;3133;43.214;27.906;2023-04-28T04:00:52;100986.28;;;8.27;100.00
6200;BME280;3133;43.214;27.906;2023-04-28T04:03:19;100955.28;;;7.88;100.00
6200;BME280;3133;43.214;27.906;2023-04-28T04:05:50;100970.94;;;7.91;100.00
6200;BME280;3133;43.214;27.906;2023-04-28T04:08:18;100921.22;;;7.68;100.00
6200;BME280;3133;43.214;27.906;2023-04-28T04:10:44;100988.47;;;8.03;100.00
6200;BME280;3133;43.214;27.906;2023-04-28T04:13:11;100989.75;;;8.27;100.00
6200;BME280;3133;43.214;27.906;2023-04-28T04:15:40;100917.41;;;7.99;100.00
6200;BME280;3133;43.214;27.906;2023-04-28T04:18:06;100985.97;;;8.60;100.00
6200;BME280;3133;43.214;27.906;2023-04-28T04:20:36;100938.75;;;7.82;100.00
6200;BME280;3133;43.214;27.906;2023-04-28T04:23:03;100993.69;;;8.06;100.00
6200;BME280;3133;43.214;27.906;2023-04-28T04:25:31;100882.28;;;7.70;100.00
6200;BME280;3133;43.214;27.906;2023-04-28T04:27:58;100895.53;;;7.85;100.00
6200;BME280;3133;43.214;27.906;2023-04-28T04:30:25;100940.94;;;8.10;100.00
6200;BME280;3133;43.214;27.906;2023-04-28T04:32:53;100997.63;;;8.32;100.00
6200;BME280;3133;43.214;27.906;2023-04-28T04:35:20;100956.97;;;8.34;100.00
6200;BME280;3133;43.214;27.906;2023-04-28T04:37:47;100966.03;;;8.59;100.00
6200;BME280;3133;43.214;27.906;2023-04-28T04:40:14;100995.19;;;8.98;100.00
6200;BME280;3133;43.214;27.906;2023-04-28T04:42:41;100936.03;;;8.83;100.00
6200;BME280;3133;43.214;27.906;2023-04-28T04:45:08;100990.38;;;9.26;100.00
6200;BME280;3133;43.214;27.906;2023-04-28T04:47:35;100993.88;;;9.28;100.00
6200;BME280;3133;43.214;27.906;2023-04-28T04:50:04;100995.00;;;9.49;100.00
6200;BME280;3133;43.214;27.906;2023-04-28T04:52:31;100889.63;;;9.15;100.00
6200;BME280;3133;43.214;27.906;2023-04-28T04:54:58;100993.66;;;9.84;100.00
6200;BME280;3133;43.214;27.906;2023-04-28T04:57:25;100887.31;;;9.39;100.00
6200;BME280;3133;43.214;27.906;2023-04-28T04:59:52;100993.81;;;9.97;100.00
6200;BME280;3133;43.214;27.906;2023-04-28T05:02:19;100985.34;;;10.17;100.00
6200;BME280;3133;43.214;27.906;2023-04-28T05:04:50;100935.50;;;9.83;100.00
6200;BME280;3133;43.214;27.906;2023-04-28T05:07:18;100859.69;;;9.53;100.00
6200;BME280;3133;43.214;27.906;2023-04-28T05:09:45;100929.66;;;10.10;100.00
6200;BME280;3133;43.214;27.906;2023-04-28T05:12:12;100973.28;;;10.28;100.00
6200;BME280;3133;43.214;27.906;2023-04-28T05:14:39;100971.59;;;10.37;100.00
6200;BME280;3133;43.214;27.906;2023-04-28T05:17:06;100973.38;;;10.38;100.00
6200;BME280;3133;43.214;27.906;2023-04-28T05:19:32;100995.25;;;10.61;100.00
6200;BME280;3133;43.214;27.906;2023-04-28T05:21:59;101004.94;;;10.76;100.00
6200;BME280;3133;43.214;27.906;2023-04-28T05:24:27;100995.38;;;10.78;100.00
6200;BME280;3133;43.214;27.906;2023-04-28T05:26:57;100976.84;;;10.42;100.00
6200;BME280;3133;43.214;27.906;2023-04-28T05:29:24;101001.47;;;10.78;100.00
6200;BME280;3133;43.214;27.906;2023-04-28T05:31:51;101011.00;;;10.69;100.00
6200;BME280;3133;43.214;27.906;2023-04-28T05:34:18;100968.09;;;10.34;100.00
6200;BME280;3133;43.214;27.906;2023-04-28T05:36:45;101012.56;;;10.47;100.00
6200;BME280;3133;43.214;27.906;2023-04-28T05:39:12;100934.22;;;10.34;100.00
6200;BME280;3133;43.214;27.906;2023-04-28T05:41:40;101009.34;;;10.85;100.00
6200;BME280;3133;43.214;27.906;2023-04-28T05:44:07;101011.13;;;10.93;100.00
6200;BME280;3133;43.214;27.906;2023-04-28T05:46:35;101001.69;;;11.15;100.00
6200;BME280;3133;43.214;27.906;2023-04-28T05:49:02;100968.56;;;11.02;100.00
6200;BME280;3133;43.214;27.906;2023-04-28T05:51:29;101000.91;;;11.25;100.00
6200;BME280;3133;43.214;27.906;2023-04-28T05:53:56;101022.81;;;11.57;100.00
6200;BME280;3133;43.214;27.906;2023-04-28T05:56:24;101019.44;;;11.88;99.38
6200;BME280;3133;43.214;27.906;2023-04-28T05:58:53;100934.97;;;12.30;95.13
6200;BME280;3133;43.214;27.906;2023-04-28T06:01:21;100924.47;;;12.75;84.94
6200;BME280;3133;43.214;27.906;2023-04-28T06:03:49;100998.28;;;13.80;79.41
6200;BME280;3133;43.214;27.906;2023-04-28T06:06:18;101006.41;;;14.70;73.93
6200;BME280;3133;43.214;27.906;2023-04-28T06:08:45;101024.25;;;15.24;65.04
6200;BME280;3133;43.214;27.906;2023-04-28T06:11:12;101010.88;;;14.58;65.16
6200;BME280;3133;43.214;27.906;2023-04-28T06:13:54;101013.19;;;13.69;71.96
6200;BME280;3133;43.214;27.906;2023-04-28T06:16:21;100970.53;;;13.34;71.15
6200;BME280;3133;43.214;27.906;2023-04-28T06:18:48;100985.44;;;13.12;71.70
6200;BME280;3133;43.214;27.906;2023-04-28T06:21:17;101013.34;;;13.31;73.38
6200;BME280;3133;43.214;27.906;2023-04-28T06:23:45;100996.81;;;13.08;70.47
6200;BME280;3133;43.214;27.906;2023-04-28T06:26:12;101022.84;;;13.56;70.16
6200;BME280;3133;43.214;27.906;2023-04-28T06:28:40;100972.09;;;13.74;66.14
6200;BME280;3133;43.214;27.906;2023-04-28T06:31:10;100972.34;;;13.23;66.43
6200;BME280;3133;43.214;27.906;2023-04-28T06:33:37;100992.16;;;13.76;66.72
6200;BME280;3133;43.214;27.906;2023-04-28T06:36:05;101026.16;;;13.98;60.57
6200;BME280;3133;43.214;27.906;2023-04-28T06:38:35;101002.56;;;13.93;62.92
6200;BME280;3133;43.214;27.906;2023-04-28T06:41:03;101026.16;;;13.95;61.21
6200;BME280;3133;43.214;27.906;2023-04-28T06:43:30;101018.25;;;14.02;60.13
6200;BME280;3133;43.214;27.906;2023-04-28T06:46:00;100999.91;;;13.96;59.46
6200;BME280;3133;43.214;27.906;2023-04-28T06:48:31;100975.63;;;13.64;60.09
6200;BME280;3133;43.214;27.906;2023-04-28T06:50:58;100802.25;;;12.92;58.49
6200;BME280;3133;43.214;27.906;2023-04-28T06:53:25;100824.84;;;13.15;57.06
6200;BME280;3133;43.214;27.906;2023-04-28T06:55:58;100951.22;;;13.56;58.51
6200;BME280;3133;43.214;27.906;2023-04-28T06:58:26;100866.66;;;13.28;59.03
6200;BME280;3133;43.214;27.906;2023-04-28T07:00:54;101021.69;;;14.12;57.81
6200;BME280;3133;43.214;27.906;2023-04-28T07:03:38;101028.78;;;13.95;59.18
6200;BME280;3133;43.214;27.906;2023-04-28T07:06:07;101014.59;;;14.24;57.20
6200;BME280;3133;43.214;27.906;2023-04-28T07:08:34;100820.06;;;13.72;55.96
6200;BME280;3133;43.214;27.906;2023-04-28T07:11:12;100946.03;;;13.47;57.14
6200;BME280;3133;43.214;27.906;2023-04-28T07:13:55;100908.50;;;13.40;58.33
6200;BME280;3133;43.214;27.906;2023-04-28T07:16:24;100893.53;;;13.62;56.85
6200;BME280;3133;43.214;27.906;2023-04-28T07:18:54;100905.28;;;14.31;55.01
6200;BME280;3133;43.214;27.906;2023-04-28T07:21:22;100841.94;;;13.68;54.63
6200;BME280;3133;43.214;27.906;2023-04-28T07:23:50;101023.03;;;14.70;54.45
6200;BME280;3133;43.214;27.906;2023-04-28T07:26:19;101027.53;;;14.54;53.09
6200;BME280;3133;43.214;27.906;2023-04-28T07:28:47;101024.94;;;14.53;54.29
6200;BME280;3133;43.214;27.906;2023-04-28T07:31:14;101024.47;;;15.03;54.62
6200;BME280;3133;43.214;27.906;2023-04-28T07:33:42;100964.31;;;14.79;51.53
6200;BME280;3133;43.214;27.906;2023-04-28T07:36:28;100987.25;;;14.57;53.59
6200;BME280;3133;43.214;27.906;2023-04-28T07:38:56;100962.94;;;14.37;52.50
6200;BME280;3133;43.214;27.906;2023-04-28T07:41:38;101017.97;;;14.49;52.60
6200;BME280;3133;43.214;27.906;2023-04-28T07:44:39;101004.13;;;14.20;54.52
6200;BME280;3133;43.214;27.906;2023-04-28T07:47:20;101026.28;;;13.69;53.45
6200;BME280;3133;43.214;27.906;2023-04-28T07:49:51;101022.69;;;13.88;54.38
6200;BME280;3133;43.214;27.906;2023-04-28T07:52:23;101011.84;;;14.47;52.73
6200;BME280;3133;43.214;27.906;2023-04-28T07:54:51;101005.50;;;14.75;51.93
6200;BME280;3133;43.214;27.906;2023-04-28T07:57:25;100998.00;;;14.25;53.81
6200;BME280;3133;43.214;27.906;2023-04-28T08:00:16;100984.00;;;14.29;54.18
6200;BME280;3133;43.214;27.906;2023-04-28T08:09:32;101004.47;;;13.67;54.21
6200;BME280;3133;43.214;27.906;2023-04-28T08:15:21;100993.50;;;14.41;52.55
6200;BME280;3133;43.214;27.906;2023-04-28T08:17:54;101000.63;;;14.25;54.01
6200;BME280;3133;43.214;27.906;2023-04-28T08:23:42;100985.03;;;14.04;53.86
6200;BME280;3133;43.214;27.906;2023-04-28T08:26:11;100977.75;;;14.44;53.67
6200;BME280;3133;43.214;27.906;2023-04-28T08:31:59;100976.03;;;14.40;49.24
6200;BME280;3133;43.214;27.906;2023-04-28T08:34:27;100975.19;;;14.35;48.70
6200;BME280;3133;43.214;27.906;2023-04-28T08:40:16;100974.47;;;14.12;51.03
6200;BME280;3133;43.214;27.906;2023-04-28T08:42:50;100972.00;;;13.88;52.22
6200;BME280;3133;43.214;27.906;2023-04-28T08:48:45;100970.06;;;14.18;53.27
6200;BME280;3133;43.214;27.906;2023-04-28T08:54:37;100954.44;;;14.03;53.93
6200;BME280;3133;43.214;27.906;2023-04-28T09:00:27;100954.97;;;14.47;51.94
6200;BME280;3133;43.214;27.906;2023-04-28T09:06:15;100943.72;;;14.33;50.21
6200;BME280;3133;43.214;27.906;2023-04-28T09:12:04;100963.66;;;14.55;50.10
6200;BME280;3133;43.214;27.906;2023-04-28T09:14:32;100953.88;;;14.73;49.50
6200;BME280;3133;43.214;27.906;2023-04-28T09:20:23;100898.97;;;14.51;47.89
6200;BME280;3133;43.214;27.906;2023-04-28T09:22:51;100945.56;;;14.18;50.19
6200;BME280;3133;43.214;27.906;2023-04-28T09:28:39;100950.56;;;14.52;48.18
6200;BME280;3133;43.214;27.906;2023-04-28T09:34:41;100968.78;;;14.68;47.05
6200;BME280;3133;43.214;27.906;2023-04-28T09:43:28;100955.88;;;14.45;47.80
6200;BME280;3133;43.214;27.906;2023-04-28T09:49:17;100938.63;;;15.06;46.65
6200;BME280;3133;43.214;27.906;2023-04-28T09:51:46;100930.84;;;14.99;45.49
6200;BME280;3133;43.214;27.906;2023-04-28T09:57:35;100935.09;;;15.09;45.94
6200;BME280;3133;43.214;27.906;2023-04-28T10:03:26;100929.59;;;15.28;45.61
6200;BME280;3133;43.214;27.906;2023-04-28T10:12:29;100903.69;;;14.98;45.67
6200;BME280;3133;43.214;27.906;2023-04-28T10:18:17;100915.25;;;14.82;47.66
6200;BME280;3133;43.214;27.906;2023-04-28T10:24:14;100929.75;;;14.34;46.33
6200;BME280;3133;43.214;27.906;2023-04-28T10:30:12;100931.50;;;15.16;45.41
6200;BME280;3133;43.214;27.906;2023-04-28T10:36:01;100924.09;;;14.75;47.80
6200;BME280;3133;43.214;27.906;2023-04-28T10:38:28;100918.88;;;14.71;46.22
6200;BME280;3133;43.214;27.906;2023-04-28T10:44:43;100932.38;;;15.15;46.39
6200;BME280;3133;43.214;27.906;2023-04-28T10:50:31;100921.84;;;15.16;46.24
6200;BME280;3133;43.214;27.906;2023-04-28T10:53:09;100911.59;;;14.95;46.04
6200;BME280;3133;43.214;27.906;2023-04-28T10:58:57;100934.06;;;14.37;45.40
6200;BME280;3133;43.214;27.906;2023-04-28T11:01:26;100929.63;;;14.43;46.61
6200;BME280;3133;43.214;27.906;2023-04-28T11:07:16;100923.31;;;14.66;45.92
6200;BME280;3133;43.214;27.906;2023-04-28T11:09:46;100919.59;;;14.85;45.29
6200;BME280;3133;43.214;27.906;2023-04-28T11:15:36;100929.59;;;15.27;44.07
6200;BME280;3133;43.214;27.906;2023-04-28T11:18:09;100920.22;;;15.06;44.15
6200;BME280;3133;43.214;27.906;2023-04-28T11:24:08;100919.75;;;15.44;43.43
6200;BME280;3133;43.214;27.906;2023-04-28T11:36:30;100916.28;;;15.44;44.41
6200;BME280;3133;43.214;27.906;2023-04-28T11:38:59;100925.84;;;15.49;44.56
6200;BME280;3133;43.214;27.906;2023-04-28T11:44:48;100921.78;;;15.22;44.34
6200;BME280;3133;43.214;27.906;2023-04-28T11:50:38;100932.69;;;15.61;44.16
6200;BME280;3133;43.214;27.906;2023-04-28T12:03:10;100892.56;;;14.77;46.41
6200;BME280;3133;43.214;27.906;2023-04-28T12:05:43;100913.19;;;15.08;46.90
6200;BME280;3133;43.214;27.906;2023-04-28T12:11:32;100903.25;;;15.31;45.08
6200;BME280;3133;43.214;27.906;2023-04-28T12:14:04;100907.34;;;15.57;43.67
6200;BME280;3133;43.214;27.906;2023-04-28T12:19:54;100873.50;;;15.31;44.75
6200;BME280;3133;43.214;27.906;2023-04-28T12:25:43;100871.09;;;15.78;42.59
6200;BME280;3133;43.214;27.906;2023-04-28T12:31:46;100874.13;;;16.06;41.72
6200;BME280;3133;43.214;27.906;2023-04-28T12:34:13;100885.13;;;15.77;42.88
6200;BME280;3133;43.214;27.906;2023-04-28T12:40:04;100858.06;;;15.69;44.63
6200;BME280;3133;43.214;27.906;2023-04-28T12:45:53;100881.50;;;15.22;44.86
6200;BME280;3133;43.214;27.906;2023-04-28T12:51:42;100871.03;;;15.19;45.27
6200;BME280;3133;43.214;27.906;2023-04-28T12:57:33;100873.06;;;15.63;44.57
6200;BME280;3133;43.214;27.906;2023-04-28T13:00:00;100882.94;;;15.47;44.94
6200;BME280;3133;43.214;27.906;2023-04-28T13:05:50;100872.94;;;15.72;44.87
6200;BME280;3133;43.214;27.906;2023-04-28T13:08:23;100880.91;;;15.67;44.22
6200;BME280;3133;43.214;27.906;2023-04-28T13:14:13;100858.25;;;15.57;44.42
6200;BME280;3133;43.214;27.906;2023-04-28T13:20:02;100889.31;;;15.25;43.57
6200;BME280;3133;43.214;27.906;2023-04-28T13:25:52;100874.56;;;15.18;43.95
6200;BME280;3133;43.214;27.906;2023-04-28T13:31:42;100845.28;;;15.42;44.46
6200;BME280;3133;43.214;27.906;2023-04-28T13:37:30;100858.81;;;15.77;43.96
6200;BME280;3133;43.214;27.906;2023-04-28T13:39:57;100857.63;;;15.96;43.75
6200;BME280;3133;43.214;27.906;2023-04-28T13:45:46;100865.56;;;15.34;43.91
6200;BME280;3133;43.214;27.906;2023-04-28T13:51:36;100868.09;;;15.40;44.46
6200;BME280;3133;43.214;27.906;2023-04-28T13:57:25;100858.91;;;15.70;45.05
6200;BME280;3133;43.214;27.906;2023-04-28T13:59:52;100865.13;;;15.67;44.90
6200;BME280;3133;43.214;27.906;2023-04-28T14:05:40;100861.03;;;15.48;45.67
6200;BME280;3133;43.214;27.906;2023-04-28T14:08:16;100868.91;;;15.48;45.03
6200;BME280;3133;43.214;27.906;2023-04-28T14:14:04;100854.34;;;15.84;44.27
6200;BME280;3133;43.214;27.906;2023-04-28T14:16:38;100839.34;;;15.89;44.46
6200;BME280;3133;43.214;27.906;2023-04-28T14:22:27;100854.88;;;15.49;45.41
6200;BME280;3133;43.214;27.906;2023-04-28T14:28:17;100867.81;;;15.61;45.21
6200;BME280;3133;43.214;27.906;2023-04-28T14:30:51;100860.06;;;15.54;45.63
6200;BME280;3133;43.214;27.906;2023-04-28T14:36:40;100861.69;;;15.62;45.39
6200;BME280;3133;43.214;27.906;2023-04-28T14:39:07;100866.34;;;15.41;46.02
6200;BME280;3133;43.214;27.906;2023-04-28T14:44:58;100823.06;;;15.03;46.86
6200;BME280;3133;43.214;27.906;2023-04-28T14:50:47;100866.97;;;14.94;46.93
6200;BME280;3133;43.214;27.906;2023-04-28T14:56:37;100866.88;;;15.03;47.60
6200;BME280;3133;43.214;27.906;2023-04-28T14:59:04;100878.09;;;15.15;48.11
6200;BME280;3133;43.214;27.906;2023-04-28T15:04:54;100873.19;;;14.87;47.66
6200;BME280;3133;43.214;27.906;2023-04-28T15:07:27;100874.22;;;14.75;48.02
6200;BME280;3133;43.214;27.906;2023-04-28T15:13:17;100873.06;;;14.99;47.52
6200;BME280;3133;43.214;27.906;2023-04-28T15:15:51;100864.19;;;15.06;47.90
6200;BME280;3133;43.214;27.906;2023-04-28T15:21:41;100871.97;;;15.15;48.10
6200;BME280;3133;43.214;27.906;2023-04-28T15:34:11;100878.63;;;15.43;49.17
6200;BME280;3133;43.214;27.906;2023-04-28T15:36:39;100871.72;;;15.31;47.58
6200;BME280;3133;43.214;27.906;2023-04-28T15:45:26;100878.63;;;15.40;49.24
6200;BME280;3133;43.214;27.906;2023-04-28T15:51:14;100872.97;;;15.03;48.05
6200;BME280;3133;43.214;27.906;2023-04-28T15:53:41;100870.38;;;15.02;48.16
6200;BME280;3133;43.214;27.906;2023-04-28T15:59:29;100876.47;;;15.04;49.05
6200;BME280;3133;43.214;27.906;2023-04-28T16:05:54;100872.88;;;15.14;49.56
6200;BME280;3133;43.214;27.906;2023-04-28T16:11:42;100871.09;;;15.13;49.65
6200;BME280;3133;43.214;27.906;2023-04-28T16:14:09;100858.91;;;15.09;49.70
6200;BME280;3133;43.214;27.906;2023-04-28T16:19:58;100873.13;;;14.91;51.91
6200;BME280;3133;43.214;27.906;2023-04-28T16:22:32;100876.53;;;15.01;51.87
6200;BME280;3133;43.214;27.906;2023-04-28T16:28:21;100873.22;;;14.85;52.54
6200;BME280;3133;43.214;27.906;2023-04-28T16:30:53;100854.81;;;14.87;52.75
6200;BME280;3133;43.214;27.906;2023-04-28T16:36:42;100861.75;;;14.91;53.46
6200;BME280;3133;43.214;27.906;2023-04-28T16:42:44;100862.03;;;14.68;54.49
6200;BME280;3133;43.214;27.906;2023-04-28T16:45:16;100862.84;;;14.72;55.04
6200;BME280;3133;43.214;27.906;2023-04-28T16:51:08;100865.22;;;14.93;55.51
6200;BME280;3133;43.214;27.906;2023-04-28T16:53:35;100858.31;;;14.84;55.38
6200;BME280;3133;43.214;27.906;2023-04-28T16:59:27;100870.91;;;14.56;56.02
6200;BME280;3133;43.214;27.906;2023-04-28T17:01:54;100867.31;;;14.64;57.54
6200;BME280;3133;43.214;27.906;2023-04-28T17:04:45;100866.47;;;14.62;57.51
6200;BME280;3133;43.214;27.906;2023-04-28T17:07:35;100862.09;;;14.60;58.24
6200;BME280;3133;43.214;27.906;2023-04-28T17:13:23;100861.28;;;14.57;59.35
6200;BME280;3133;43.214;27.906;2023-04-28T17:15:57;100863.88;;;14.60;60.10
6200;BME280;3133;43.214;27.906;2023-04-28T17:21:46;100863.09;;;14.50;60.80
6200;BME280;3133;43.214;27.906;2023-04-28T17:24:14;100864.03;;;14.43;62.43
6200;BME280;3133;43.214;27.906;2023-04-28T17:30:03;100871.00;;;14.46;63.40
6200;BME280;3133;43.214;27.906;2023-04-28T17:32:37;100840.59;;;14.25;64.43
6200;BME280;3133;43.214;27.906;2023-04-28T17:38:25;100861.78;;;14.01;70.14
6200;BME280;3133;43.214;27.906;2023-04-28T17:44:14;100874.06;;;13.96;73.58
6200;BME280;3133;43.214;27.906;2023-04-28T17:46:40;100879.38;;;13.89;74.95
6200;BME280;3133;43.214;27.906;2023-04-28T17:52:30;100893.38;;;13.84;77.49
6200;BME280;3133;43.214;27.906;2023-04-28T17:58:19;100856.03;;;13.54;80.17
6200;BME280;3133;43.214;27.906;2023-04-28T18:04:08;100894.44;;;13.58;82.54
6200;BME280;3133;43.214;27.906;2023-04-28T18:09:58;100862.28;;;13.32;85.19
6200;BME280;3133;43.214;27.906;2023-04-28T18:19:09;100896.31;;;13.36;87.64